Moran, MI (49760)

8:39 PM EDT on August 04, 2015 (GMT -0400)
MesoWest | | Change Station
CLOSE
Current Station
Personal Weather Station
Location: Saint Ignace, MI
Elevation: 603 ft
Nearby Weather Stations

Elev 603 ft 45.90 °N, 84.74 °W | Updated 39 minutes ago

Overcast
Overcast
71 °F
Feels Like 76 °F
N
4
Wind Variable Wind from North
Gusts 12.0 mph

Today
High -- | Low -- °F
--% Chance of Precip.
Yesterday
High -- | Low -- °F
Precip. -- in
6:25 AM 9:05 PM
Waning Gibbous, 73% visible
Pressure 29.95 in
Visibility 10.0 miles
Clouds Clear
Heat Index 76 °F
Dew Point 57 °F
Humidity 61%
Rainfall in
Snow Depth Not available.
UV 0 out of 12
Pollen 6.30 out of 12
Air Quality Not available.
Flu Activity Not available.
METAR KMCD 050036Z AUTO 33008G14KT 10SM CLR 17/08 A2995 RMK AO2 T01650084

More Conditions Fewer Conditions

Pressure 29.95 in
Visibility 10.0 miles
Clouds Clear
Heat Index 76 °F
Dew Point 57 °F
Humidity 61%
Rainfall in
Snow Depth Not available.
UV 0 out of 12
Pollen 6.30 out of 12
Air Quality Not available.
Flu Activity Not available.
METAR KMCD 050036Z AUTO 33008G14KT 10SM CLR 17/08 A2995 RMK AO2 T01650084

More Conditions Fewer Conditions

Nowcast | as of 8:00 PM EDT on August 4, 2015

At 9 PM...mostly clear. Temperature 60. Northwest winds 12 mph. At 11 PM...mostly clear. Temperature 55. Northwest winds 10 mph. At 1 am...mostly clear. Temperature 53. Northwest winds 12 mph. At 3 am...mostly clear. Temperature 52. Northwest winds 11 mph.

×

10-Day Weather Forecast

×

Almanac

Astronomy

Aug. 04, 2015 Rise Set
Actual Time
Civil Twilight
Nautical Twilight
Astronomical Twilight
Moon
Length of Visible Light
Length of Day
Tomorrow will be .
, % of the Moon is Illuminated

Today's Extremes

State Highs State Lows

Community

WunderPhotos

Upload Photos

1,844,033 photos uploaded!

WunderBlogs® & News

Nearby

Air Quality

  Air Quality AQ Index Pollutant
Not available.

Snow Depth

Station Depth Elevation

Earthquake Activity

City Distance Mag. Time & Date
Minimum magnitude displayed is 2.5.

Coastal Water Temperatures

Place Temperature

Stations

Nearby Weather Stations

Station Location Temp. Windchill Dew Point Humidity Wind Precip. Elev Updated Type